createdAt,value
2018-09-13T00:00:49.005Z,7.13
2018-09-13T00:05:52.124Z,8.30
2018-09-13T00:10:55.202Z,7.23
2018-09-13T00:15:59.229Z,7.33
2018-09-13T00:21:02.359Z,7.27
2018-09-13T00:26:08.250Z,6.07
2018-09-13T00:31:12.213Z,6.47
2018-09-13T00:36:16.437Z,6.27
2018-09-13T00:41:19.800Z,6.40
2018-09-13T00:46:22.824Z,6.67
2018-09-13T00:51:26.484Z,7.70
2018-09-13T00:56:29.722Z,7.50
2018-09-13T01:01:32.858Z,9.10
2018-09-13T01:06:39.499Z,8.40
2018-09-13T01:11:43.402Z,7.73
2018-09-13T01:16:47.552Z,8.33
2018-09-13T01:21:50.638Z,7.93
2018-09-13T01:26:53.702Z,9.10
2018-09-13T01:31:57.859Z,8.77
2018-09-13T01:37:01.203Z,8.43
2018-09-13T01:42:05.704Z,9.87
2018-09-13T01:47:11.351Z,9.90
2018-09-13T01:52:14.778Z,10.30
2018-09-13T01:57:17.868Z,8.53
2018-09-13T02:02:21.019Z,7.30
2018-09-13T02:07:24.115Z,8.30
2018-09-13T02:12:27.193Z,7.93
2018-09-13T02:17:30.223Z,7.50
2018-09-13T02:22:34.895Z,6.60
2018-09-13T02:27:39.772Z,6.00
2018-09-13T02:32:43.971Z,7.03
2018-09-13T02:37:48.038Z,7.23
2018-09-13T02:42:51.195Z,6.77
2018-09-13T02:47:54.283Z,5.70
2018-09-13T02:52:57.386Z,6.70
2018-09-13T02:58:01.946Z,5.80
2018-09-13T03:03:10.080Z,6.60
2018-09-13T03:08:14.561Z,5.97
2018-09-13T03:13:17.987Z,6.93
2018-09-13T03:18:21.071Z,6.43
2018-09-13T03:23:24.146Z,6.57
2018-09-13T03:28:27.258Z,4.97
2018-09-13T03:33:31.411Z,4.57
2018-09-13T03:38:35.888Z,4.50
2018-09-13T03:43:41.410Z,4.90
2018-09-13T03:48:45.097Z,4.43
2018-09-13T03:53:48.091Z,4.70
2018-09-13T03:58:55.477Z,4.40
2018-09-13T04:04:00.874Z,3.60
2018-09-13T04:09:09.125Z,2.23
2018-09-13T04:14:13.573Z,3.03
2018-09-13T04:19:18.645Z,2.77
2018-09-13T04:24:23.520Z,2.73
2018-09-13T04:29:27.005Z,2.10
2018-09-13T04:34:30.464Z,2.60
2018-09-13T04:39:33.743Z,2.10
2018-09-13T04:44:37.590Z,2.00
2018-09-13T04:49:41.065Z,2.60
2018-09-13T04:54:45.504Z,3.07
2018-09-13T04:59:48.893Z,3.57
2018-09-13T05:04:52.564Z,3.53
2018-09-13T05:09:56.741Z,4.67
2018-09-13T05:15:00.109Z,4.20
2018-09-13T05:20:04.162Z,4.13
2018-09-13T05:25:07.874Z,4.40
2018-09-13T05:30:11.559Z,5.10
2018-09-13T05:35:15.248Z,5.30
2018-09-13T05:40:18.739Z,6.77
2018-09-13T05:45:21.962Z,7.23
2018-09-13T05:50:25.576Z,7.67
2018-09-13T05:55:28.861Z,8.83
2018-09-13T06:00:32.955Z,10.10
2018-09-13T06:05:36.421Z,11.80
2018-09-13T06:10:40.258Z,12.33
2018-09-13T06:15:43.721Z,13.27
2018-09-13T06:20:47.039Z,13.20
2018-09-13T06:25:50.186Z,14.37
2018-09-13T06:30:53.280Z,11.97
2018-09-13T06:35:56.320Z,9.43
2018-09-13T06:41:00.664Z,8.10
2018-09-13T06:46:06.559Z,6.13
2018-09-13T06:51:11.964Z,3.93
2018-09-13T06:56:15.808Z,3.17
2018-09-13T07:01:20.632Z,3.70
2018-09-13T07:06:23.751Z,2.80
2018-09-13T07:11:27.130Z,3.33
2018-09-13T07:16:36.021Z,3.17
2018-09-13T07:21:41.281Z,2.40
2018-09-13T07:26:44.584Z,2.17
2018-09-13T07:31:48.985Z,2.40
2018-09-13T07:36:52.405Z,2.00
2018-09-13T07:41:55.455Z,2.60
2018-09-13T07:46:59.844Z,2.20
2018-09-13T07:52:08.295Z,2.40
2018-09-13T07:57:14.225Z,2.00
2018-09-13T08:02:17.650Z,2.30
2018-09-13T08:07:20.990Z,2.30
2018-09-13T08:12:24.371Z,1.87
2018-09-13T08:17:27.955Z,2.10
2018-09-13T08:22:41.515Z,1.70
2018-09-13T08:27:45.333Z,1.73
2018-09-13T08:32:48.693Z,2.00
2018-09-13T08:37:52.112Z,1.40
2018-09-13T08:42:55.412Z,1.37
2018-09-13T08:47:58.805Z,0.90
2018-09-13T08:53:07.119Z,1.57
2018-09-13T08:58:11.729Z,1.40
2018-09-13T09:03:15.160Z,1.47
2018-09-13T09:08:18.496Z,1.43
2018-09-13T09:13:21.906Z,1.40
2018-09-13T09:18:25.292Z,1.30
2018-09-13T09:23:28.669Z,1.33
2018-09-13T09:28:34.682Z,1.60
2018-09-13T09:33:39.737Z,1.47
2018-09-13T09:38:43.795Z,1.70
2018-09-13T09:43:47.156Z,1.60
2018-09-13T09:48:50.505Z,1.60
2018-09-13T09:53:53.842Z,2.17
2018-09-13T09:58:57.224Z,2.23
2018-09-13T10:04:03.885Z,1.97
2018-09-13T10:09:09.592Z,2.00
2018-09-13T10:14:13.778Z,2.13
2018-09-13T10:19:23.004Z,2.10
2018-09-13T10:24:32.164Z,2.07
2018-09-13T10:29:42.721Z,1.53
2018-09-13T10:34:51.536Z,1.70
2018-09-13T10:40:01.493Z,1.70
2018-09-13T10:45:11.357Z,1.67
2018-09-13T10:50:20.272Z,1.80
2018-09-13T10:55:23.752Z,1.67
2018-09-13T11:00:27.324Z,2.70
2018-09-13T11:05:35.189Z,2.13
2018-09-13T11:10:40.782Z,2.10
2018-09-13T11:15:44.171Z,2.20
2018-09-13T11:20:47.478Z,2.30
2018-09-13T11:25:50.846Z,2.30
2018-09-13T11:31:00.459Z,2.77
2018-09-13T11:36:08.383Z,2.13
2018-09-13T11:41:12.770Z,2.80
2018-09-13T11:46:16.918Z,2.90
2018-09-13T11:51:27.028Z,2.43
2018-09-13T11:56:32.252Z,2.23
2018-09-13T12:01:36.863Z,3.50
2018-09-13T12:06:41.107Z,2.60
2018-09-13T12:11:45.412Z,3.70
2018-09-13T12:16:48.542Z,2.87
2018-09-13T12:21:51.710Z,2.90
2018-09-13T12:26:54.761Z,3.23
2018-09-13T12:31:59.061Z,3.03
2018-09-13T12:37:04.113Z,3.10
2018-09-13T12:42:11.353Z,3.00
2018-09-13T12:47:15.902Z,3.23
2018-09-13T12:52:18.979Z,2.50
2018-09-13T12:57:21.985Z,3.30
2018-09-13T13:02:25.051Z,3.00
2018-09-13T13:07:28.489Z,2.60
2018-09-13T13:12:37.106Z,2.70
2018-09-13T13:17:41.697Z,2.53
2018-09-13T13:22:45.340Z,2.47
2018-09-13T13:27:48.657Z,2.33
2018-09-13T13:32:53.115Z,2.30
2018-09-13T13:37:56.951Z,2.33
2018-09-13T13:43:01.380Z,2.53
2018-09-13T13:48:05.620Z,2.30
2018-09-13T13:53:10.102Z,2.60
2018-09-13T13:58:13.782Z,2.53
2018-09-13T14:03:17.100Z,2.00
2018-09-13T14:08:20.476Z,2.50
2018-09-13T14:13:24.565Z,2.57
2018-09-13T14:18:30.727Z,2.60
2018-09-13T14:23:37.459Z,2.40
2018-09-13T14:28:42.160Z,2.47
2018-09-13T14:33:46.327Z,3.10
2018-09-13T14:38:49.973Z,2.77
2018-09-13T14:43:53.326Z,2.87
2018-09-13T14:48:56.659Z,2.83
2018-09-13T14:54:02.540Z,2.40
2018-09-13T14:59:08.624Z,2.60
2018-09-13T15:04:13.221Z,2.63
2018-09-13T15:09:16.297Z,2.07
2018-09-13T15:14:19.313Z,3.00
2018-09-13T15:19:22.325Z,2.40
2018-09-13T15:24:25.512Z,2.93
2018-09-13T15:29:33.741Z,3.03
2018-09-13T15:34:39.626Z,2.90
2018-09-13T15:39:44.363Z,2.50
2018-09-13T15:44:47.783Z,3.33
2018-09-13T15:49:51.218Z,3.07
2018-09-13T15:54:54.265Z,3.27
2018-09-13T15:59:57.694Z,2.87
2018-09-13T16:05:01.067Z,2.97
2018-09-13T16:10:04.416Z,3.70
2018-09-13T16:15:07.509Z,2.90
2018-09-13T16:20:10.629Z,3.20
2018-09-13T16:25:13.706Z,3.20
2018-09-13T16:30:16.725Z,2.73
2018-09-13T16:35:22.658Z,2.80
2018-09-13T16:40:31.362Z,3.27
2018-09-13T16:45:35.875Z,3.20
2018-09-13T16:50:38.904Z,3.33
2018-09-13T16:55:42.013Z,2.80
2018-09-13T17:00:45.764Z,3.00
2018-09-13T17:05:50.146Z,2.90
2018-09-13T17:10:58.891Z,2.80
2018-09-13T17:16:03.761Z,3.03
2018-09-13T17:21:08.041Z,2.90
2018-09-13T17:26:11.090Z,3.07
2018-09-13T17:31:14.331Z,3.50
2018-09-13T17:36:17.402Z,3.40
2018-09-13T17:41:20.560Z,3.40
2018-09-13T17:46:28.075Z,4.50
2018-09-13T17:51:34.042Z,4.20
2018-09-13T17:56:38.162Z,4.23
2018-09-13T18:01:41.198Z,4.10
2018-09-13T18:06:44.513Z,3.90
2018-09-13T18:11:47.563Z,3.93
2018-09-13T18:17:03.185Z,3.90
2018-09-13T18:22:06.474Z,4.63
2018-09-13T18:27:11.581Z,4.57
2018-09-13T18:32:15.036Z,4.73
2018-09-13T18:37:20.513Z,4.73
2018-09-13T18:42:25.850Z,4.93
2018-09-13T18:47:31.224Z,4.60
2018-09-13T18:52:36.566Z,6.20
2018-09-13T18:57:40.418Z,4.80
2018-09-13T19:02:45.041Z,5.33
2018-09-13T19:07:49.512Z,5.40
2018-09-13T19:12:57.967Z,5.20
2018-09-13T19:18:02.787Z,5.43
2018-09-13T19:23:07.184Z,6.47
2018-09-13T19:28:10.364Z,6.43
2018-09-13T19:33:13.360Z,6.30
2018-09-13T19:38:16.455Z,6.40
2018-09-13T19:43:19.470Z,8.60
2018-09-13T19:48:23.596Z,8.77
2018-09-13T19:53:28.484Z,8.47
2018-09-13T19:58:32.549Z,8.47
2018-09-13T20:03:36.185Z,10.60
2018-09-13T20:08:39.176Z,10.87
2018-09-13T20:13:42.218Z,11.97
2018-09-13T20:18:45.603Z,12.50
2018-09-13T20:23:48.647Z,10.10
2018-09-13T20:28:53.401Z,9.80
2018-09-13T20:33:59.712Z,8.67
2018-09-13T20:39:05.763Z,7.53
2018-09-13T20:44:08.775Z,8.07
2018-09-13T20:49:11.877Z,8.30
2018-09-13T20:54:14.895Z,7.50
2018-09-13T20:59:18.421Z,8.30
2018-09-13T21:04:22.268Z,9.80
2018-09-13T21:09:27.777Z,6.53
2018-09-13T21:14:32.238Z,6.33
2018-09-13T21:19:36.304Z,6.73
2018-09-13T21:24:39.341Z,6.97
2018-09-13T21:29:42.413Z,6.67
2018-09-13T21:34:45.490Z,6.60
2018-09-13T21:39:48.531Z,14.27
2018-09-13T21:44:53.196Z,7.93
2018-09-13T21:49:59.484Z,7.30
2018-09-13T21:55:04.237Z,6.27
2018-09-13T22:00:10.210Z,6.00
2018-09-13T22:05:13.226Z,6.30
2018-09-13T22:10:16.309Z,7.20
2018-09-13T22:15:19.350Z,7.00
2018-09-13T22:20:26.857Z,6.60
2018-09-13T22:25:31.785Z,6.70
2018-09-13T22:30:36.056Z,6.10
2018-09-13T22:35:39.283Z,7.77
2018-09-13T22:40:42.473Z,5.00
2018-09-13T22:45:45.523Z,5.03
2018-09-13T22:50:50.268Z,6.03
2018-09-13T22:55:58.547Z,6.43
2018-09-13T23:01:03.159Z,5.90
2018-09-13T23:06:06.831Z,5.60
2018-09-13T23:11:09.907Z,6.10
2018-09-13T23:16:12.902Z,5.10
2018-09-13T23:21:15.950Z,6.00
2018-09-13T23:26:20.056Z,6.30
2018-09-13T23:31:27.898Z,5.73
2018-09-13T23:36:33.988Z,6.40
2018-09-13T23:41:39.286Z,6.50
2018-09-13T23:46:42.262Z,5.27
2018-09-13T23:51:45.282Z,5.90
2018-09-13T23:56:48.277Z,5.93
